Date,TemperatureHighF,TemperatureAvgF,TemperatureLowF,DewpointHighF,DewpointAvgF,DewpointLowF,HumidityHigh,HumidityAvg,HumidityLow,PressureMaxIn,PressureMinIn,WindSpeedMaxMPH,WindSpeedAvgMPH,GustSpeedMaxMPH,PrecipitationSumIn
2014-1-1,10.3,4.0,-7.5,0.0,-3.9,-12.0,84,70,57,30.52,30.43,9,3,12,0.00
2014-1-2,10.7,5.3,-4.4,1.0,-2.4,-9.0,82,71,55,30.49,30.39,16,4,19,0.00
2014-1-3,20.4,6.8,-9.2,14.0,0.7,-14.0,84,76,63,30.47,29.70,25,7,26,0.00
2014-1-4,31.9,22.2,10.4,29.0,15.6,2.0,90,76,67,30.17,29.60,19,8,30,0.00
2014-1-5,10.1,-1.2,-11.0,2.0,-9.7,-19.0,73,67,58,30.31,30.17,19,10,25,0.00
2014-1-6,-11.4,-15.1,-21.6,-19.0,-22.6,-29.0,76,69,60,30.27,30.20,21,10,30,0.00
2014-1-7,5.1,-6.4,-16.8,-8.0,-14.2,-22.0,79,70,55,30.35,30.21,14,4,21,0.00
2014-1-8,6.1,-1.8,-8.6,-4.0,-8.9,-13.0,83,72,59,30.58,30.34,13,3,16,0.00
2014-1-9,20.0,3.2,-14.0,17.0,-2.6,-19.0,89,77,50,30.57,30.14,7,2,12,0.00
2014-1-10,34.0,27.7,19.9,33.0,26.2,17.0,96,94,89,30.13,29.47,9,4,13,0.04
2014-1-16,23.6,13.7,10.9,17.0,2.4,-99.9,86,75,76,29.73,29.55,25,-53,29,0.00
2014-1-17,20.8,14.4,4.9,14.0,9.6,1.0,89,81,75,29.99,29.73,19,8,22,0.00
2014-1-18,20.3,10.9,3.4,13.0,6.9,0.0,89,84,73,29.95,29.80,9,3,13,0.00
2014-1-19,39.2,28.2,15.5,29.0,22.6,12.0,88,80,65,29.79,29.45,11,4,18,0.02
2014-1-20,30.2,16.0,1.8,26.0,9.3,-6.0,86,75,62,30.33,29.66,15,5,23,0.02
2014-1-21,8.6,-0.5,-9.2,-5.0,-8.2,-14.0,82,71,53,30.43,30.16,12,4,17,0.00
2014-1-22,7.0,3.4,-1.2,3.0,-3.7,-99.9,85,75,58,30.30,29.96,22,-2,33,0.00
2014-1-23,4.2,-2.2,-9.2,-7.0,-9.7,-15.0,78,71,58,30.65,30.31,18,9,27,0.00
2014-1-24,30.5,14.8,-9.2,27.0,8.7,-15.0,92,77,63,30.44,29.42,19,6,28,0.00
2014-1-25,30.2,10.1,3.1,23.0,-1.7,-8.0,75,59,51,29.83,29.42,25,13,37,0.00
2014-1-26,16.2,8.2,2.5,11.0,3.5,-6.0,86,81,67,29.90,29.38,25,8,42,0.00
2014-1-27,2.3,-7.3,-13.2,-7.0,-16.4,-21.0,74,65,56,30.44,29.91,23,10,29,0.00
2014-1-28,3.4,-6.7,-16.7,-10.0,-14.2,-21.0,79,70,54,30.43,30.18,20,4,21,0.00
2014-1-29,27.0,10.4,-5.1,15.0,-0.1,-10.0,79,64,46,30.18,29.76,16,6,21,0.00
2014-1-30,30.4,25.1,10.6,28.0,17.9,4.0,93,75,59,29.95,29.49,17,7,28,0.00
2014-1-31,10.2,3.0,-3.8,3.0,-4.9,-9.0,83,70,57,30.21,29.96,14,4,17,0.00
2014-2-1,21.6,9.7,-3.5,10.0,2.7,-7.0,85,74,60,30.18,30.00,8,2,11,0.00
2014-2-2,14.5,6.9,-1.0,5.0,-0.4,-6.0,86,73,53,30.36,30.19,14,4,16,0.00
2014-2-3,27.2,9.9,-8.4,13.0,2.3,-13.0,86,72,55,30.39,30.28,11,2,16,0.00
2014-2-4,19.2,11.7,2.1,9.0,5.1,-1.0,87,75,59,30.50,30.34,7,2,10,0.00
2014-2-5,14.9,11.2,2.2,9.0,4.6,-3.0,80,75,68,30.48,30.33,16,7,22,0.00
2014-2-6,9.2,0.1,-7.5,-2.0,-6.7,-12.0,83,74,58,30.46,30.31,17,5,23,0.00
2014-2-7,16.6,4.8,-4.7,-1.0,-4.4,-9.0,83,68,44,30.31,30.24,14,4,24,0.00
2014-2-8,18.0,8.5,-4.9,9.0,3.2,-9.0,87,79,65,30.29,30.17,6,1,8,0.00
2014-2-9,14.9,9.4,-1.2,8.0,2.3,-8.0,87,73,56,30.36,30.17,18,7,22,0.00
2014-2-10,10.1,0.1,-8.0,-3.0,-8.4,-13.0,80,68,53,30.54,30.36,16,6,21,0.00
2014-2-11,17.5,3.6,-11.0,2.0,-5.7,-16.0,82,67,48,30.56,30.30,10,3,15,0.00
2014-2-12,25.0,14.5,7.2,16.0,8.0,-2.0,87,76,66,30.30,30.00,14,4,16,0.01
2014-2-13,28.0,21.0,11.2,25.0,17.3,8.0,90,86,76,30.00,29.47,24,8,28,0.01
2014-2-14,21.0,15.1,6.9,16.0,8.0,1.0,84,73,64,30.05,29.63,18,9,23,0.00
2014-2-15,26.9,12.5,-3.4,16.0,5.6,-7.0,88,75,47,30.09,29.96,8,3,12,0.00
2014-2-16,27.7,17.5,10.7,15.0,11.0,8.0,89,76,57,30.30,30.01,11,4,13,0.02
2014-2-17,25.2,22.0,16.6,23.0,19.4,12.0,92,89,82,30.26,29.74,15,5,18,0.02
2014-2-18,42.6,29.3,21.2,32.0,23.8,-99.9,93,83,64,29.88,29.58,10,-9,15,0.06
2014-2-19,47.6,36.7,25.7,28.0,25.3,22.0,87,66,41,29.87,29.68,11,4,19,0.00
2014-2-20,38.5,36.0,33.6,36.0,31.5,25.0,95,84,65,29.85,28.94,27,9,39,0.50
2014-2-21,34.7,20.5,16.1,34.0,14.3,-99.9,95,82,77,29.71,28.97,20,-13,37,0.50
2014-2-22,25.2,17.1,10.3,13.0,9.6,5.0,83,73,57,30.08,29.72,21,7,28,0.00
2014-2-23,22.4,13.2,5.0,8.0,4.3,0.0,80,69,51,30.20,30.09,23,8,35,0.00
2014-2-24,19.0,11.5,5.6,6.0,3.1,0.0,80,69,56,30.29,30.20,17,8,23,0.00
2014-2-25,11.2,7.0,0.6,3.0,-2.4,-8.0,83,66,52,30.28,30.18,19,9,27,0.00
2014-2-26,14.3,4.6,-8.1,10.0,-5.2,-15.0,85,65,40,30.27,29.62,32,7,42,0.00
2014-2-27,6.3,-1.5,-8.6,-1.0,-14.4,-18.0,75,55,36,30.25,29.77,25,8,34,0.00
2014-2-28,14.5,4.9,-10.8,12.0,-2.2,-16.0,88,74,50,30.23,30.01,13,3,15,0.00
2014-3-1,12.7,6.8,1.4,8.0,-1.1,-10.0,81,70,60,30.46,30.14,16,8,22,0.00
2014-3-2,5.6,-0.8,-7.1,-10.0,-16.1,-21.0,62,49,36,30.57,30.46,14,7,21,0.00
2014-3-3,18.5,4.5,-13.0,7.0,-7.0,-18.0,81,61,40,30.60,30.37,9,2,12,0.00
2014-3-4,20.3,15.2,10.8,11.0,8.7,7.0,86,76,63,30.36,30.22,6,2,9,0.01
2014-3-5,20.4,14.8,5.8,9.0,5.1,-3.0,80,66,51,30.56,30.34,14,6,21,0.01
2014-3-6,31.3,18.1,2.7,17.0,9.6,-4.0,89,71,49,30.51,29.99,13,5,17,0.00
2014-3-7,39.6,31.0,20.9,31.0,24.6,15.0,84,77,67,30.09,29.84,13,6,17,0.00
2014-3-8,33.0,25.0,18.3,26.0,16.0,13.0,79,69,55,30.29,30.10,13,4,17,0.00
2014-3-9,47.5,31.7,16.6,33.0,22.7,13.0,87,71,52,30.23,29.68,16,5,28,0.00
2014-3-10,59.8,46.4,33.9,39.0,34.8,32.0,92,67,40,29.68,29.55,16,4,22,0.00
2014-3-11,46.7,42.6,37.8,35.0,31.9,26.0,80,66,57,29.86,29.64,14,4,18,0.00
2014-3-12,38.0,26.6,17.7,28.0,12.4,0.0,86,57,32,30.11,29.83,17,5,22,0.00
2014-3-13,44.3,28.5,12.3,35.0,16.5,-99.9,82,66,58,30.10,29.64,12,-18,21,0.00
2014-3-14,45.7,42.0,34.5,37.0,33.0,25.0,83,71,58,29.82,29.46,23,8,32,0.00
2014-3-15,34.0,30.1,21.9,26.0,17.1,8.0,72,59,46,30.41,29.83,17,7,26,0.00
2014-3-16,24.3,17.2,8.9,10.0,3.6,-1.0,74,57,36,30.53,30.19,14,6,19,0.00
2014-3-17,33.0,24.3,16.2,22.0,14.5,9.0,80,67,50,30.18,29.75,13,6,22,0.00
2014-3-18,45.7,34.2,26.0,35.0,28.4,22.0,90,80,63,29.83,29.74,17,6,20,0.00
2014-3-19,37.1,34.7,33.3,34.0,30.8,23.0,95,86,61,29.94,29.66,22,8,29,0.03
2014-3-20,42.3,34.8,31.7,28.0,24.6,22.0,81,67,54,30.04,29.94,14,6,20,0.03
2014-3-24,32.6,25.7,-12.9,27.0,15.5,-99.9,92,75,51,30.20,0.00,13,-44,19,0.00
2014-3-25,20.6,16.4,12.5,15.0,5.5,0.0,85,63,47,30.25,30.05,26,9,30,0.00
2014-3-26,36.5,23.7,8.6,29.0,12.9,4.0,89,66,44,30.27,29.87,15,5,24,0.00
2014-3-27,40.9,37.9,34.4,37.0,32.9,26.0,94,83,68,29.85,29.48,14,6,18,0.09
2014-3-28,41.7,36.3,33.3,27.0,20.7,-99.9,74,60,54,30.20,0.00,13,-34,20,0.00
2014-3-29,49.0,38.8,32.3,30.0,26.7,23.0,87,64,40,30.31,30.19,11,3,14,0.00
2014-3-30,61.0,45.8,31.5,39.0,31.2,24.0,78,59,39,30.22,29.92,21,7,24,0.00
2014-3-31,65.9,53.2,43.0,45.0,41.0,38.0,85,65,45,29.95,29.46,18,7,34,0.00
2014-4-1,57.4,34.5,28.2,46.0,26.4,19.0,89,73,58,30.08,29.46,33,8,35,0.00
2014-4-2,47.6,36.3,25.0,29.0,23.1,20.0,88,61,38,30.23,30.08,11,4,17,0.00
2014-4-3,37.6,34.5,31.3,31.0,26.9,22.0,92,74,56,30.15,29.73,22,10,27,0.02
2014-4-4,34.7,33.8,32.2,33.0,31.8,30.0,95,92,86,30.00,29.52,12,1,18,0.15
2014-4-5,53.6,39.8,26.3,34.0,29.1,25.0,94,69,38,30.17,30.01,14,4,21,0.20
2014-4-6,63.9,50.5,39.1,44.0,35.6,29.0,71,58,42,30.06,29.84,19,6,26,0.00
2014-4-7,62.1,49.3,42.6,47.0,41.8,37.0,90,76,55,29.87,29.66,13,4,15,0.06
2014-4-8,55.7,46.1,36.4,40.0,34.8,29.0,93,68,39,29.95,29.68,16,7,27,0.06
2014-4-9,64.5,49.4,31.9,35.0,30.7,27.0,86,53,30,29.96,29.58,17,6,26,0.00
2014-4-10,62.2,55.7,41.7,41.0,28.5,14.0,63,38,18,29.90,29.52,30,10,35,0.00
2014-4-11,62.3,49.5,37.1,43.0,33.9,25.0,73,56,39,29.99,29.91,17,2,23,0.00
2014-4-12,50.5,45.3,42.0,42.0,39.2,29.0,96,81,44,30.00,29.69,14,7,26,0.01
2014-4-13,50.9,44.6,35.7,48.0,42.8,34.0,97,93,85,29.82,29.65,15,4,24,0.71
2014-4-14,35.8,31.7,26.2,35.0,26.0,15.0,96,80,60,30.07,29.62,21,8,30,0.75
2014-4-15,35.6,27.5,18.4,21.0,15.7,13.0,85,63,40,30.21,30.06,16,4,20,0.00
2014-4-16,47.3,36.8,26.0,35.0,27.4,20.0,91,70,55,30.25,30.03,20,8,26,0.01
2014-4-17,49.1,42.6,37.4,39.0,34.8,30.0,87,74,64,30.31,29.97,16,7,24,0.02
2014-4-18,56.2,43.4,31.7,34.0,27.9,22.0,85,58,32,30.40,30.31,10,4,19,0.00
2014-4-19,57.8,41.0,34.4,34.0,29.8,27.0,83,66,39,30.40,30.23,17,8,21,0.00
2014-4-21,73.6,62.5,49.7,60.0,40.9,-99.9,86,52,27,29.90,29.74,26,-30,33,0.02
2014-4-22,55.2,46.7,39.1,35.0,30.2,27.0,71,55,35,30.12,29.90,20,9,30,0.02
2014-4-23,54.3,45.6,35.5,34.0,28.6,23.0,83,55,30,30.18,30.02,14,5,18,0.06
2014-4-24,45.2,41.8,36.9,43.0,38.4,30.0,94,88,70,30.09,29.69,18,8,30,0.42
2014-4-25,62.6,50.7,42.7,47.0,40.8,34.0,96,72,40,29.87,29.69,23,7,49,0.43
2014-4-26,53.6,45.1,34.6,35.0,33.0,30.0,85,64,45,30.12,29.88,18,6,22,0.00
2014-4-27,43.9,40.8,36.8,39.0,35.8,33.0,91,82,72,30.12,29.86,31,12,39,0.46
2014-4-28,48.8,44.6,41.4,41.0,37.7,35.0,89,77,61,29.89,29.70,25,16,37,0.26
2014-4-29,44.7,42.5,38.6,43.0,40.1,36.0,95,91,83,29.70,29.55,22,8,34,0.17
2014-4-30,51.0,46.8,43.9,49.0,45.2,43.0,97,94,89,29.68,29.62,10,4,14,0.03
2014-5-1,50.4,45.8,41.5,46.0,43.2,41.0,96,91,76,29.77,29.60,16,6,23,0.02
2014-5-2,53.1,48.2,44.2,46.0,43.5,41.0,92,84,65,29.76,29.64,11,3,17,0.03
2014-5-3,60.0,50.9,42.7,46.0,38.8,33.0,95,67,37,29.85,29.63,27,8,37,0.04
2014-5-4,61.2,50.9,40.9,37.0,30.3,24.0,73,48,24,30.07,29.85,17,6,21,0.00
2014-5-5,59.0,50.9,44.0,41.0,37.4,34.0,74,61,45,30.08,29.96,15,6,19,0.00
2014-5-6,61.4,52.2,41.9,41.0,37.5,35.0,84,60,40,30.07,29.91,22,9,26,0.00
2014-5-7,53.5,50.4,47.2,50.0,45.0,35.0,92,82,55,29.97,29.79,20,10,40,0.01
2014-5-8,78.0,63.7,50.9,66.0,56.8,49.0,93,79,59,29.81,29.58,13,6,22,0.01
2014-5-9,73.5,58.4,50.0,64.0,51.8,43.0,94,79,70,29.77,29.51,19,6,27,0.20
2014-5-10,74.8,59.1,42.7,54.0,39.9,27.0,90,56,17,29.91,29.77,13,3,20,0.02
2014-5-11,78.7,66.8,58.9,64.0,55.4,47.0,91,69,47,29.89,29.81,9,4,23,0.13
2014-5-12,78.1,66.9,59.3,69.0,63.1,58.0,96,88,66,29.84,29.67,13,5,19,1.10
2014-5-13,68.1,54.9,47.8,65.0,48.4,41.0,95,80,62,30.12,29.68,20,8,30,0.09
2014-5-14,56.8,26.6,41.2,40.0,-23.1,-99.9,88,39,39,30.22,30.08,14,-438,24,0.00
2014-5-15,-200.0,0.0,200.0,-99.9,-99.9,-99.9,0,0,100,30.07,29.96,0,-999,0,0.00
2014-5-16,-200.0,0.0,200.0,-99.9,-99.9,-99.9,0,0,100,30.04,29.98,0,-999,0,0.00
2014-5-17,-200.0,0.0,200.0,-99.9,-99.9,-99.9,0,0,100,30.03,29.97,0,-999,0,0.00
2014-5-18,-200.0,0.0,200.0,-99.9,-99.9,-99.9,0,0,100,30.09,30.03,0,-999,0,0.00
2014-5-19,54.1,17.2,52.4,52.0,-51.3,-99.9,93,30,83,30.11,29.87,20,-663,25,1.16
2014-5-20,78.7,65.7,53.4,63.0,56.1,50.0,90,73,47,29.87,29.78,10,3,14,1.16
2014-5-21,73.6,65.4,56.1,59.0,53.2,44.0,94,67,35,30.00,29.79,22,8,32,0.00
2014-5-22,70.7,60.8,51.0,50.0,47.7,45.0,86,64,43,30.16,30.00,20,6,24,0.00
2014-5-23,76.4,63.0,48.5,49.0,46.6,43.0,84,58,36,30.22,30.14,8,2,12,0.00
2014-5-24,81.6,68.4,53.0,52.0,48.3,44.0,83,53,28,30.20,30.06,9,2,16,0.00
2014-5-25,84.7,72.0,54.4,58.0,50.5,45.0,82,50,27,30.09,29.91,10,3,17,0.00
2014-5-26,87.3,76.7,69.3,70.0,64.8,58.0,80,68,49,29.93,29.80,11,3,20,0.00
2014-5-27,77.2,71.2,66.9,69.0,66.4,62.0,95,85,71,29.93,29.81,10,4,14,0.01
2014-5-28,79.2,67.9,60.2,64.0,50.1,39.0,89,55,27,30.08,29.93,10,4,13,0.02
2014-5-29,87.1,70.9,54.9,57.0,49.9,40.0,86,53,21,30.14,30.04,13,4,13,0.00
2014-5-30,88.1,74.7,58.6,58.0,53.8,47.0,91,53,25,30.16,30.06,11,3,15,0.00
2014-5-31,91.2,77.3,61.5,58.0,55.0,52.0,74,49,26,30.12,29.93,13,4,18,0.00
2014-6-1,83.0,72.1,68.6,72.0,67.8,58.0,94,87,51,29.98,29.72,15,5,24,0.20
2014-6-2,82.5,72.8,68.3,69.0,66.2,58.0,95,81,54,29.75,29.61,12,5,29,0.53
2014-6-3,77.4,69.3,62.6,60.0,50.0,-99.9,74,54,42,29.89,29.67,27,-19,30,0.00
2014-6-4,79.8,69.9,62.9,59.0,55.9,51.0,85,64,37,29.89,29.80,11,3,16,0.00
2014-6-5,81.8,70.9,60.3,61.0,56.7,52.0,92,64,37,29.94,29.84,9,3,16,0.00
2014-6-6,84.3,73.6,65.2,63.0,58.5,54.0,83,61,40,29.94,29.87,9,2,18,0.00
2014-6-7,80.8,67.6,59.9,64.0,60.4,55.0,90,78,55,29.96,29.84,18,4,33,0.06
2014-6-8,77.7,67.4,56.9,56.0,48.7,42.0,88,56,29,30.06,29.95,13,3,17,0.00
2014-6-9,78.3,68.2,59.0,51.0,44.9,38.0,70,46,23,30.04,29.93,11,3,15,0.00
2014-6-10,75.9,67.7,57.5,55.0,50.9,40.0,84,57,28,29.96,29.86,12,4,17,0.00
2014-6-11,81.2,69.7,59.3,57.0,53.3,49.0,75,58,37,29.85,29.70,11,3,16,0.00
2014-6-12,70.8,62.8,59.0,61.0,50.0,-99.9,89,68,50,29.84,29.64,24,-15,35,0.00
2014-6-13,73.1,62.2,50.3,52.0,42.9,38.0,76,52,29,29.98,29.84,22,9,28,0.00
2014-6-14,78.7,67.1,53.5,55.0,49.3,46.0,81,56,32,30.04,29.79,16,5,24,0.02
2014-6-15,83.9,73.0,64.1,67.0,57.1,49.0,73,58,43,29.86,29.60,24,8,30,0.05
2014-6-16,87.7,76.0,61.5,65.0,58.5,51.0,90,58,29,29.94,29.73,14,4,27,0.63
2014-6-17,87.9,75.8,65.4,70.0,65.8,63.0,95,73,47,29.84,29.64,17,4,19,0.91
2014-6-18,79.0,70.9,66.4,70.0,66.1,64.0,95,85,66,30.00,29.78,15,6,33,1.46
2014-6-19,76.3,69.8,64.7,67.0,64.8,62.0,94,84,70,30.09,29.96,17,8,25,0.00
2014-6-20,85.1,71.6,63.9,70.0,65.7,62.0,96,83,54,29.97,29.87,14,4,17,0.00
2014-6-21,81.9,71.9,64.4,72.0,67.4,63.0,97,86,67,29.91,29.80,10,4,14,0.00
2014-6-22,80.6,73.1,66.7,70.0,66.7,64.0,95,81,60,29.89,29.78,12,4,14,0.04
2014-6-23,82.7,74.6,67.7,69.0,67.3,65.0,95,79,58,29.81,29.75,10,2,15,0.04
2014-6-24,85.7,76.1,67.6,68.0,64.5,59.0,92,70,43,29.89,29.78,17,4,21,0.00
2014-6-25,79.4,71.0,66.2,65.0,63.3,60.0,91,78,55,30.00,29.89,11,4,16,0.00
2014-6-26,79.5,71.0,63.2,65.0,62.1,59.0,91,74,58,30.05,29.94,12,4,16,0.00
2014-6-27,86.2,75.6,65.2,72.0,66.7,60.0,86,75,57,29.97,29.82,15,6,24,0.04
2014-6-28,87.7,80.2,71.7,74.0,71.2,68.0,89,75,60,29.89,29.73,19,7,23,0.11
2014-6-29,88.9,75.5,68.2,72.0,67.6,62.0,95,78,43,29.78,29.70,17,5,23,0.03
2014-6-30,81.0,72.9,67.2,73.0,68.1,65.0,94,85,63,29.74,29.39,15,5,29,0.18
2014-7-1,78.3,69.1,61.9,66.0,61.2,-99.9,93,80,61,29.67,29.51,14,5,23,0.07
2014-7-2,74.6,64.0,58.8,60.0,55.0,47.0,95,75,46,30.02,29.68,14,5,19,0.11
2014-7-3,77.0,65.5,50.8,58.0,50.6,46.0,86,61,38,30.17,30.02,14,4,22,0.00
2014-7-4,82.3,70.6,53.8,57.0,49.8,41.0,90,54,25,30.28,30.17,8,2,14,0.00
2014-7-5,80.5,71.4,62.4,65.0,60.0,55.0,81,68,56,30.18,29.92,17,7,26,0.00
2014-7-6,81.4,73.3,66.3,75.0,69.3,63.0,94,87,79,29.93,29.58,14,4,20,0.00
2014-7-7,86.6,73.9,64.8,71.0,64.4,60.0,95,75,45,29.69,29.54,33,4,46,0.40
2014-7-8,74.6,67.8,64.1,64.0,61.4,57.0,96,81,55,29.80,29.54,18,7,34,0.41
2014-7-9,74.4,67.0,61.2,60.0,55.3,49.0,92,68,47,30.02,29.80,16,5,25,0.00
2014-7-10,82.8,71.0,57.6,66.0,59.0,53.0,86,67,47,30.10,30.02,11,4,17,0.00
2014-7-11,78.4,72.9,66.3,65.0,62.1,57.0,86,70,50,30.08,30.00,16,6,25,0.00
2014-7-12,80.2,72.3,65.7,73.0,67.4,64.0,95,85,74,30.01,29.82,11,2,16,0.93
2014-7-13,77.4,70.2,63.8,66.0,56.9,45.0,96,67,33,29.88,29.82,23,6,25,0.94
2014-7-14,69.2,61.2,55.4,57.0,53.3,48.0,91,76,53,29.87,29.80,25,5,30,0.08
2014-7-15,69.2,60.7,53.3,56.0,52.5,49.0,92,76,50,29.97,29.87,20,7,27,0.09
2014-7-16,73.9,63.7,50.7,53.0,49.1,44.0,93,63,37,30.02,29.97,10,2,17,0.00
2014-7-17,78.9,67.8,53.4,55.0,52.4,50.0,89,61,38,30.06,30.00,8,2,17,0.00
2014-7-18,81.7,71.7,60.2,61.0,57.2,53.0,79,62,41,30.09,30.00,13,4,18,0.00
2014-7-19,82.4,72.6,65.2,64.0,61.5,59.0,83,69,49,30.01,29.92,11,4,18,0.00
2014-7-20,84.5,74.8,65.6,67.0,64.4,61.0,85,71,52,29.96,29.88,16,6,19,0.00
2014-7-21,90.0,78.8,69.2,73.0,68.9,65.0,87,73,57,29.96,29.89,12,5,17,0.00
2014-7-22,89.9,80.2,68.7,77.0,70.1,62.0,83,72,56,30.04,29.80,16,7,25,0.00
2014-7-23,80.4,71.4,60.8,62.0,59.2,57.0,93,67,46,30.18,30.04,10,3,21,0.00
2014-7-24,81.5,70.9,58.8,60.0,55.5,51.0,85,61,39,30.16,29.93,8,3,13,0.00
2014-7-25,72.1,68.4,64.1,65.0,62.4,60.0,89,81,71,29.96,29.80,13,5,19,0.00
2014-7-26,67.8,67.2,66.7,65.0,64.7,64.0,92,91,90,29.83,29.79,7,4,11,0.00
2014-7-28,74.9,68.3,64.7,59.0,54.1,53.0,78,58,49,30.11,0.00,14,6,21,0.00
2014-7-29,79.3,67.0,58.0,62.0,58.0,55.0,91,75,46,30.04,29.94,12,2,23,0.07
2014-7-30,76.7,67.5,57.0,63.0,56.8,51.0,94,71,43,30.03,29.95,11,2,21,0.21
2014-7-31,83.0,69.3,60.8,67.0,60.6,59.0,95,73,49,29.98,29.93,14,2,19,0.04
2014-8-1,83.3,61.8,62.9,66.0,55.7,59.0,90,71,57,30.07,29.96,8,0,13,0.04
2014-8-2,88.5,73.3,59.1,66.0,60.8,57.0,93,69,36,30.12,30.04,8,0,14,0.00
2014-8-3,86.0,74.9,66.1,68.0,65.3,61.0,93,74,46,30.07,29.99,13,1,21,0.06
2014-8-4,74.6,68.9,64.6,69.0,65.9,63.0,95,90,80,30.07,29.99,10,1,12,0.71
2014-8-5,82.7,72.3,63.0,67.0,62.2,58.0,95,73,47,30.08,30.01,7,0,10,0.00
2014-8-6,84.9,73.8,61.0,64.0,60.5,53.0,93,66,39,30.06,29.99,6,0,11,0.00
2014-8-7,82.3,73.2,62.7,65.0,60.3,56.0,90,66,40,30.08,30.01,10,1,12,0.00
2014-8-8,83.9,73.5,61.4,61.0,58.1,56.0,89,61,40,30.10,30.03,10,1,12,0.00
2014-8-9,82.9,73.6,62.9,63.0,59.7,56.0,87,63,43,30.12,30.04,9,1,15,0.00
2014-8-10,84.7,73.7,59.8,65.0,60.2,56.0,87,65,44,30.07,29.95,5,0,11,0.00
2014-8-11,79.6,69.1,62.5,67.0,63.1,59.0,95,82,61,29.95,29.80,11,2,21,1.52
2014-8-12,67.1,62.0,59.5,59.0,57.0,54.0,88,84,63,29.94,29.87,15,4,17,1.52
2014-8-13,69.7,64.0,62.0,63.0,58.8,57.0,87,84,80,29.99,29.93,2,0,6,0.00
2014-8-14,73.8,63.2,51.7,55.0,50.2,44.0,87,65,38,30.13,30.01,5,0,9,0.00
2014-8-15,83.9,69.4,52.4,67.0,59.0,50.0,91,72,51,30.03,29.85,8,1,11,0.00
2014-8-16,87.4,74.0,65.4,71.0,67.6,64.0,96,82,53,29.90,29.79,14,2,17,0.00
2014-8-17,75.7,67.3,60.8,67.0,61.1,57.0,89,81,67,30.02,29.91,11,2,15,0.00
2014-8-18,75.6,66.7,61.7,72.0,64.7,59.0,95,93,83,29.91,29.65,8,0,13,0.21
2014-8-19,78.6,70.8,65.1,68.0,65.5,64.0,97,84,65,29.73,29.59,13,2,19,0.01
2014-8-20,80.6,70.0,62.4,67.0,64.3,61.0,96,83,62,29.90,29.73,4,0,11,0.03
2014-8-21,80.1,71.9,66.2,73.0,68.6,64.0,96,89,76,29.91,29.82,10,1,15,0.01
2014-8-22,89.5,78.9,72.3,78.0,74.3,71.0,97,86,67,29.93,29.83,9,1,11,0.01
2014-8-23,78.0,75.0,72.9,76.0,73.2,72.0,96,94,89,29.96,29.90,7,1,12,0.01
2014-8-24,83.6,76.5,70.6,76.0,71.8,68.0,94,85,72,29.96,29.86,12,3,16,0.01
2014-8-25,90.5,78.2,68.5,77.0,72.3,67.0,95,83,57,29.97,29.84,12,2,24,0.01
2014-8-26,73.9,67.8,63.5,66.0,58.9,55.0,87,74,58,30.12,29.94,11,2,16,0.00
2014-8-27,77.7,69.1,62.2,61.0,58.3,56.0,85,70,55,30.17,30.08,8,0,11,0.00
2014-8-28,75.8,65.6,56.3,66.0,60.2,54.0,96,83,66,30.12,29.99,9,1,12,0.00
2014-8-29,86.7,71.4,58.8,75.0,67.0,56.0,95,87,65,30.00,29.72,16,2,22,0.00
2014-8-30,78.6,71.0,67.1,71.0,67.5,64.0,96,89,73,29.85,29.66,12,2,18,0.00
2014-8-31,84.3,73.5,64.5,71.0,67.3,63.0,94,82,62,29.88,29.68,8,2,15,0.00
2014-9-1,78.4,71.9,63.7,71.0,64.5,61.0,94,78,59,29.77,29.59,12,3,21,0.00
2014-9-2,79.7,68.3,59.2,62.0,60.2,58.0,95,77,48,29.88,29.78,9,1,18,0.00
2014-9-3,83.2,72.3,59.7,68.0,62.6,58.0,94,74,48,29.93,29.75,11,3,15,0.00
2014-9-4,81.3,74.2,69.8,74.0,69.9,67.0,94,86,69,29.84,29.72,13,3,22,0.01
2014-9-5,78.2,66.6,56.9,76.0,60.9,54.0,94,82,71,30.09,29.72,15,6,21,0.01
2014-9-6,74.0,63.0,50.8,57.0,53.1,49.0,94,73,45,30.15,30.10,16,2,21,0.00
2014-9-7,81.2,67.7,55.2,60.0,55.7,51.0,94,69,36,30.15,30.05,6,0,11,0.00
2014-9-8,74.0,66.6,57.8,59.0,56.4,54.0,88,71,51,30.06,29.90,12,2,20,0.00
2014-9-9,83.6,72.1,62.1,66.0,62.1,58.0,88,72,48,29.91,29.74,9,1,19,0.00
2014-9-10,69.9,61.1,47.0,69.0,57.9,42.0,96,89,77,29.96,29.42,24,6,24,0.00
2014-9-11,56.7,50.3,45.5,44.0,42.1,40.0,86,74,60,30.34,29.96,12,3,19,0.00
2014-9-12,49.7,45.6,42.8,45.0,42.0,39.0,93,87,69,30.42,30.32,5,0,9,0.00
2014-9-13,61.5,50.0,40.1,44.0,40.0,34.0,95,72,39,30.36,30.26,8,0,12,0.00
2014-9-14,60.2,50.9,48.1,47.0,43.5,42.0,82,76,61,30.26,30.14,11,2,19,0.00
2014-9-18,63.2,55.1,52.5,54.0,49.9,49.0,92,79,72,30.16,0.00,3,0,8,0.00
2014-9-19,74.1,63.0,51.5,59.0,54.7,50.0,96,76,55,30.11,29.73,20,5,22,0.00
2014-9-20,78.0,68.8,58.1,67.0,62.6,56.0,94,81,56,29.75,29.65,22,3,23,0.00
2014-9-21,63.2,57.2,46.6,57.0,49.7,43.0,94,77,54,30.17,29.66,20,6,23,0.00
2014-9-22,71.3,56.5,42.8,55.0,48.6,41.0,93,77,52,30.24,30.16,11,1,15,0.00
2014-9-23,75.8,62.1,49.0,57.0,52.8,47.0,95,74,45,30.28,30.20,8,1,10,0.00
2014-9-24,71.0,62.4,55.0,59.0,54.5,51.0,91,76,56,30.28,30.21,8,1,11,0.00
2014-9-25,79.8,66.8,56.0,60.0,57.0,53.0,94,74,42,30.25,30.17,7,0,8,0.00
2014-9-26,79.6,67.0,53.2,58.0,55.5,51.0,93,69,43,30.24,30.16,8,0,9,0.00
2014-9-27,84.4,69.8,58.8,63.0,57.7,54.0,84,67,43,30.22,30.10,10,1,11,0.00
2014-9-28,84.9,70.7,58.0,63.0,60.2,56.0,93,72,43,30.14,29.99,7,0,8,0.00
2014-9-29,64.8,58.2,47.9,62.0,54.2,43.0,94,86,76,30.08,29.95,12,2,16,0.00
2014-9-30,55.6,47.8,42.8,46.0,42.8,39.0,89,83,69,30.11,30.01,11,3,13,0.00
2014-10-1,64.3,56.6,48.1,58.0,52.0,46.0,95,85,72,30.03,29.83,10,2,15,0.00
2014-10-2,71.0,63.4,57.9,65.0,60.4,56.0,96,90,77,29.84,29.53,20,1,22,0.00
2014-10-3,58.4,57.5,56.9,56.0,55.0,54.0,91,90,90,29.56,29.54,15,8,22,0.00
2014-10-9,56.6,47.7,36.1,37.0,34.9,31.0,83,60,46,30.18,30.09,14,4,16,0.00
2014-10-10,57.6,47.3,34.7,41.0,35.4,33.0,93,67,40,30.24,30.16,8,1,13,0.01
2014-10-11,59.0,46.2,34.8,39.0,34.6,32.0,89,67,39,30.27,30.09,4,0,10,0.00
2014-10-12,60.9,51.0,38.7,49.0,39.7,34.0,91,67,43,30.09,29.85,12,2,17,0.00
2014-10-13,57.9,54.0,50.6,55.0,52.1,49.0,96,93,86,29.85,29.58,7,1,18,0.00
2014-10-14,55.8,53.6,51.1,53.0,50.0,46.0,95,88,75,29.80,29.52,21,7,23,0.00
2014-10-15,59.9,54.6,50.9,51.0,48.4,45.0,88,79,72,29.88,29.76,12,3,20,0.00
2014-10-16,66.8,54.8,42.6,52.0,48.8,41.0,96,81,57,29.85,29.50,7,1,10,0.00
2014-10-17,55.1,51.9,49.0,51.0,47.1,43.0,92,84,74,29.91,29.47,20,6,23,0.00
2014-10-18,53.0,46.1,37.7,44.0,37.3,34.0,90,73,49,30.17,29.92,18,4,22,0.00
2014-10-19,59.9,47.3,34.1,48.0,41.2,32.0,92,80,62,30.15,29.76,17,3,21,0.01
2014-10-20,56.6,51.3,43.1,47.0,44.4,41.0,94,78,62,30.05,29.75,18,3,20,0.02
2014-10-21,54.6,47.0,40.2,44.0,39.4,37.0,87,75,57,30.29,30.05,9,1,12,0.00
2014-10-22,58.6,46.1,34.7,41.0,37.5,33.0,94,74,49,30.36,30.18,9,2,13,0.03
2014-10-23,49.1,46.5,42.9,48.0,44.3,40.0,96,92,80,30.18,30.02,8,1,10,0.01
2014-10-24,61.8,53.6,47.6,57.0,51.1,47.0,97,92,75,30.03,29.83,6,0,10,0.02
2014-10-25,64.4,57.6,50.0,57.0,40.4,28.0,96,58,26,29.96,29.82,21,6,23,0.01
2014-10-26,66.0,52.5,39.4,34.0,31.1,28.0,75,46,25,30.00,29.76,8,1,12,0.00
2014-10-27,69.1,60.1,51.6,56.0,47.8,33.0,90,65,41,29.75,29.49,10,2,16,0.00
2014-10-28,57.0,48.9,43.8,55.0,42.1,36.0,93,78,66,29.86,29.54,19,5,22,0.00
2014-10-29,48.5,42.6,35.9,36.0,34.9,33.0,90,74,63,30.12,29.86,19,6,23,0.00
2014-10-30,51.5,42.3,34.5,40.0,36.1,32.0,93,80,59,30.12,30.04,17,3,24,0.01
2014-10-31,40.4,35.2,30.2,32.0,24.8,20.0,93,67,46,30.50,30.13,23,7,24,0.03
2014-11-1,45.2,34.4,23.6,28.0,23.8,20.0,88,67,45,30.53,30.35,5,0,7,0.02
2014-11-2,55.5,43.1,31.3,30.0,25.6,22.0,81,54,29,30.35,30.04,17,4,19,0.01
2014-11-3,54.3,47.7,41.2,50.0,36.2,25.0,89,65,47,30.04,29.75,10,2,13,0.05
2014-11-4,55.0,48.4,43.2,54.0,39.2,31.0,96,72,53,29.95,29.71,20,6,22,0.08
2014-11-5,43.8,40.5,34.0,40.0,35.8,30.0,94,83,67,30.08,29.84,9,1,13,0.19
2014-11-6,41.4,37.7,35.6,40.0,32.9,29.0,94,83,70,30.25,29.84,20,6,23,0.28
2014-11-7,42.7,38.8,34.5,36.0,30.9,28.0,85,74,57,30.21,29.67,11,3,16,0.01
2014-11-8,42.2,39.2,34.9,38.0,29.2,22.0,88,68,49,29.91,29.66,23,9,24,0.01
2014-11-9,39.6,36.3,33.9,36.0,31.8,26.0,94,84,69,29.87,29.72,12,2,17,0.07
2014-11-10,38.4,35.0,30.7,37.0,32.2,26.0,96,90,72,29.87,29.55,19,6,24,0.01
2014-11-11,36.0,30.8,21.5,35.0,27.4,17.0,95,87,76,30.16,29.69,20,8,26,0.03
2014-11-12,25.1,22.4,19.4,20.0,18.1,17.0,89,83,77,30.31,30.16,14,5,19,0.00
2014-11-13,25.9,22.9,18.2,20.0,18.5,16.0,91,83,68,30.33,30.29,14,6,22,0.00
2014-11-14,25.2,22.0,15.6,19.0,15.6,12.0,85,76,64,30.39,30.32,12,4,14,0.00
2014-11-15,23.2,18.1,10.5,19.0,14.6,8.0,91,86,72,30.39,30.20,5,0,9,0.00
2014-11-16,26.6,21.7,11.3,22.0,17.1,7.0,90,83,66,30.20,29.86,9,2,20,0.00
2014-11-17,14.2,12.2,9.7,10.0,7.3,5.0,88,80,69,29.92,29.82,23,5,23,0.00
2014-11-18,17.5,13.9,10.4,10.0,6.9,5.0,82,74,63,30.04,29.90,19,6,24,0.00
2014-11-19,23.2,19.7,16.0,18.0,14.7,10.0,89,81,70,29.95,29.76,20,5,28,0.00
2014-11-20,20.2,15.2,6.4,17.0,6.8,1.0,89,70,55,30.35,29.91,19,7,23,0.00
2014-11-21,32.9,19.1,2.6,23.0,7.7,-1.0,87,64,42,30.41,30.04,13,4,18,0.00
2014-11-22,43.9,37.3,33.1,43.0,34.7,24.0,97,90,68,30.03,29.68,11,2,16,0.00
2014-11-23,51.3,49.4,44.6,51.0,48.6,44.0,97,97,96,29.68,29.13,11,2,13,0.03
2014-11-24,46.0,34.6,24.4,45.0,33.5,22.0,97,96,92,29.75,29.05,21,8,25,0.13
2014-11-25,24.6,22.0,20.0,22.0,19.2,17.0,93,89,82,30.18,29.77,18,4,20,0.00
2014-11-26,29.9,23.0,17.7,24.0,19.7,16.0,92,87,75,30.29,30.16,11,0,14,0.01
2014-11-27,24.0,13.7,5.6,20.0,8.6,2.0,88,80,66,30.46,30.29,13,5,15,0.01
2014-11-28,26.1,18.5,8.4,24.0,14.9,5.0,92,86,81,30.40,29.84,10,1,13,0.00
2014-11-29,40.4,33.6,26.0,38.0,32.2,24.0,96,94,89,29.84,29.48,5,0,9,0.07
2014-11-30,35.4,24.1,11.7,33.0,17.9,3.0,95,77,66,30.43,29.55,18,10,23,0.00
2014-12-1,11.9,7.2,3.0,3.0,-2.8,-6.0,72,64,50,30.78,30.43,13,4,19,0.00
2014-12-2,26.7,18.6,1.9,22.0,14.1,-4.0,89,82,73,30.64,30.01,11,2,16,0.00
2014-12-3,27.2,21.6,13.4,21.0,13.4,9.0,86,72,48,30.40,30.00,18,4,22,0.00
2014-12-4,28.1,20.6,11.5,22.0,12.7,8.0,87,73,51,30.46,30.25,10,1,13,0.00
2014-12-5,39.0,32.1,26.3,33.0,28.3,22.0,89,86,78,30.37,30.18,11,1,13,0.01
2014-12-6,37.8,28.0,22.2,27.0,20.9,16.0,92,76,47,30.71,30.38,8,0,14,0.00
2014-12-7,36.0,29.1,19.1,28.0,22.0,15.0,89,75,58,30.68,30.19,14,3,16,0.00
2014-12-8,35.8,33.7,31.0,35.0,32.2,28.0,97,94,89,30.19,29.95,14,4,20,0.02
2014-12-9,35.2,30.3,22.0,29.0,26.2,20.0,92,85,74,30.46,30.20,12,4,16,0.03
2014-12-10,23.3,21.9,19.9,22.0,20.2,18.0,94,93,91,30.48,30.34,4,0,8,0.00
2014-12-11,26.4,23.1,18.8,25.0,21.4,17.0,94,93,91,30.33,30.25,8,2,15,0.00
2014-12-12,35.4,32.4,26.3,34.0,31.3,25.0,96,96,95,30.30,30.20,9,1,13,0.01
2014-12-13,44.1,39.7,34.6,43.0,39.0,33.0,98,97,95,30.20,30.01,5,0,10,0.02
2014-12-14,47.3,44.9,42.2,47.0,44.3,42.0,98,98,98,30.01,29.91,1,0,2,0.02
2014-12-15,46.4,45.3,42.9,46.0,44.9,42.0,99,98,98,29.90,29.67,6,0,11,0.12
2014-12-16,42.6,33.9,25.7,42.0,31.8,23.0,99,91,80,30.16,29.66,21,8,24,0.31
2014-12-17,25.7,22.1,20.2,22.0,17.2,15.0,86,79,75,30.34,30.16,16,7,21,0.00
2014-12-18,27.8,25.7,21.5,24.0,22.3,17.0,92,87,82,30.35,30.28,3,0,6,0.00
2014-12-19,27.3,25.7,24.1,23.0,22.6,21.0,92,88,83,30.34,30.28,10,0,10,0.00
2014-12-20,32.8,29.4,25.1,29.0,26.7,23.0,93,90,85,30.29,30.20,7,0,7,0.00
2014-12-21,37.4,34.5,31.2,36.0,32.9,29.0,96,93,90,30.20,29.91,15,4,18,0.01
2014-12-22,39.9,36.6,35.4,36.0,34.3,33.0,96,91,82,29.90,29.65,12,6,17,0.10
2014-12-23,37.2,36.1,35.1,37.0,35.2,34.0,98,96,95,29.75,29.57,13,3,18,0.03
2014-12-24,36.7,35.7,35.0,36.0,34.4,32.0,98,95,88,29.72,29.54,10,2,13,0.05
2014-12-25,36.9,35.0,33.0,33.0,31.7,29.0,93,88,83,29.92,29.59,10,2,17,0.00
2014-12-26,47.3,36.8,31.5,39.0,34.1,30.0,96,90,72,30.04,29.89,5,0,9,0.00
2014-12-27,35.8,31.9,21.4,35.0,29.8,19.0,97,92,82,30.12,29.82,18,4,23,0.18
2014-12-28,26.5,19.8,14.6,21.0,16.2,11.0,91,85,78,30.38,30.11,7,1,12,0.00
2014-12-29,15.7,10.6,3.2,11.0,5.4,-2.0,87,80,71,30.67,30.37,11,3,14,0.00
2014-12-30,10.1,3.1,-2.2,-2.0,-4.9,-9.0,79,67,51,30.78,30.66,14,5,19,0.00
2014-12-31,19.4,7.7,-3.0,8.0,0.2,-7.0,84,71,50,30.64,30.04,13,4,22,0.00
2015-1-1,26.0,19.9,13.3,20.0,15.2,7.0,87,82,75,30.16,29.89,12,3,20,0.00
2015-1-2,28.9,20.0,9.0,20.0,7.8,1.0,86,61,38,30.34,30.16,6,0,12,0.00